Time,TemperatureF,DewpointF,PressureIn,WindDirection,WindDirectionDegrees,WindSpeedMPH,WindSpeedGustMPH,Humidity,HourlyPrecipIn,Conditions,Clouds,dailyrainin,SoftwareType,DateUTC
2013-01-10 00:03:00,50.6,48.2,29.43,West,270,0.7,0.7,92,0.00,,,0.00,WUHU216HW,2013-01-10 06:03:00,
2013-01-10 00:08:00,50.4,48.1,29.43,West,270,0.0,0.7,92,0.00,,,0.00,WUHU216HW,2013-01-10 06:08:00,
2013-01-10 00:13:00,50.2,47.9,29.43,South,180,2.2,2.2,92,0.00,,,0.00,WUHU216HW,2013-01-10 06:13:00,
2013-01-10 00:18:00,50.2,47.9,29.44,SSW,203,2.9,2.9,92,0.00,,,0.00,WUHU216HW,2013-01-10 06:18:00,
2013-01-10 00:23:00,50.2,47.9,29.44,SSW,203,1.6,2.9,92,0.00,,,0.00,WUHU216HW,2013-01-10 06:23:00,
2013-01-10 00:28:00,50.4,48.4,29.44,SSW,203,1.8,1.8,93,0.00,,,0.00,WUHU216HW,2013-01-10 06:28:00,
2013-01-10 00:33:00,50.4,48.4,29.44,WSW,248,1.8,1.8,93,0.00,,,0.00,WUHU216HW,2013-01-10 06:33:00,
2013-01-10 00:38:00,50.4,48.4,29.44,SW,225,1.8,2.5,93,0.00,,,0.00,WUHU216HW,2013-01-10 06:38:00,
2013-01-10 00:44:00,50.2,48.3,29.44,SSW,203,2.2,2.5,93,0.00,,,0.00,WUHU216HW,2013-01-10 06:44:00,
2013-01-10 00:49:00,50.2,48.3,29.43,SSW,203,1.1,2.2,93,0.00,,,0.00,WUHU216HW,2013-01-10 06:49:00,
2013-01-10 00:54:00,50.2,48.3,29.43,SSW,203,1.1,2.5,93,0.00,,,0.00,WUHU216HW,2013-01-10 06:54:00,
2013-01-10 00:59:00,50.0,48.1,29.44,SSW,203,1.3,2.5,93,0.00,,,0.00,WUHU216HW,2013-01-10 06:59:00,
2013-01-10 01:04:00,50.0,48.1,29.44,SSW,203,1.3,2.2,93,0.00,,,0.00,WUHU216HW,2013-01-10 07:04:00,
2013-01-10 01:09:00,49.9,47.9,29.44,SSW,203,1.6,3.6,93,0.00,,,0.00,WUHU216HW,2013-01-10 07:09:00,
2013-01-10 01:14:00,49.9,48.2,29.44,SW,225,1.8,3.6,94,0.00,,,0.00,WUHU216HW,2013-01-10 07:14:00,
2013-01-10 01:19:00,50.0,48.3,29.45,SW,225,2.0,4.0,94,0.00,,,0.00,WUHU216HW,2013-01-10 07:19:00,
2013-01-10 01:24:00,50.0,48.3,29.45,SW,225,2.7,4.0,94,0.00,,,0.00,WUHU216HW,2013-01-10 07:24:00,
2013-01-10 01:29:00,50.0,48.3,29.45,SSW,203,2.7,4.7,94,0.00,,,0.00,WUHU216HW,2013-01-10 07:29:00,
2013-01-10 01:34:00,50.2,48.5,29.45,SSW,203,3.8,4.7,94,0.00,,,0.00,WUHU216HW,2013-01-10 07:34:00,
2013-01-10 01:39:00,50.2,48.5,29.45,SSW,203,1.3,4.7,94,0.00,,,0.00,WUHU216HW,2013-01-10 07:39:00,
2013-01-10 01:44:00,50.2,48.5,29.45,WSW,248,2.2,4.0,94,0.00,,,0.00,WUHU216HW,2013-01-10 07:44:00,
2013-01-10 01:49:00,50.4,48.7,29.45,SSW,203,4.0,4.0,94,0.00,,,0.00,WUHU216HW,2013-01-10 07:49:00,
2013-01-10 01:54:00,50.4,48.7,29.45,SSW,203,2.5,4.0,94,0.00,,,0.00,WUHU216HW,2013-01-10 07:54:00,
2013-01-10 01:59:00,50.4,48.7,29.45,West,270,1.8,4.3,94,0.00,,,0.00,WUHU216HW,2013-01-10 07:59:00,
2013-01-10 02:04:00,50.6,48.9,29.45,WSW,248,1.6,5.8,94,0.00,,,0.00,WUHU216HW,2013-01-10 08:04:00,
2013-01-10 02:09:00,50.6,48.9,29.46,SW,225,3.6,5.8,94,0.00,,,0.00,WUHU216HW,2013-01-10 08:09:00,
2013-01-10 02:14:00,50.6,48.9,29.46,SSW,203,2.9,5.4,94,0.00,,,0.00,WUHU216HW,2013-01-10 08:14:00,
2013-01-10 02:19:00,50.6,48.9,29.46,WSW,248,5.6,5.6,94,0.00,,,0.00,WUHU216HW,2013-01-10 08:19:00,
2013-01-10 02:24:00,50.4,49.0,29.46,WSW,248,3.4,7.6,95,0.00,,,0.00,WUHU216HW,2013-01-10 08:24:00,
2013-01-10 02:29:00,50.4,49.0,29.46,SSW,203,3.6,7.6,95,0.00,,,0.00,WUHU216HW,2013-01-10 08:29:00,
2013-01-10 02:34:00,50.4,49.0,29.46,SW,225,2.9,4.7,95,0.00,,,0.00,WUHU216HW,2013-01-10 08:34:00,
2013-01-10 02:39:00,50.4,49.0,29.46,WSW,248,4.7,4.7,95,0.00,,,0.00,WUHU216HW,2013-01-10 08:39:00,
2013-01-10 02:44:00,50.4,49.0,29.46,WNW,293,6.0,6.0,95,0.00,,,0.00,WUHU216HW,2013-01-10 08:44:00,
2013-01-10 02:49:00,50.4,49.0,29.46,WSW,248,5.6,9.8,95,0.00,,,0.00,WUHU216HW,2013-01-10 08:49:00,
2013-01-10 02:54:00,50.4,49.0,29.46,WSW,248,2.5,9.8,95,0.00,,,0.00,WUHU216HW,2013-01-10 08:54:00,
2013-01-10 02:59:00,50.2,48.8,29.46,WSW,248,5.1,7.2,95,0.00,,,0.00,WUHU216HW,2013-01-10 08:59:00,
2013-01-10 03:04:00,50.0,48.6,29.46,SSE,158,2.5,7.2,95,0.00,,,0.00,WUHU216HW,2013-01-10 09:04:00,
2013-01-10 03:09:00,50.0,48.6,29.46,SW,225,4.0,6.5,95,0.00,,,0.00,WUHU216HW,2013-01-10 09:09:00,
2013-01-10 03:14:00,50.0,48.6,29.46,SW,225,6.9,6.9,95,0.00,,,0.00,WUHU216HW,2013-01-10 09:14:00,
2013-01-10 03:19:00,50.0,48.6,29.46,WSW,248,3.6,8.9,95,0.00,,,0.00,WUHU216HW,2013-01-10 09:19:00,
2013-01-10 03:25:00,50.0,48.6,29.46,WSW,248,4.0,8.9,95,0.00,,,0.00,WUHU216HW,2013-01-10 09:25:00,
2013-01-10 03:30:00,49.9,48.4,29.46,SW,225,4.0,8.3,95,0.00,,,0.00,WUHU216HW,2013-01-10 09:30:00,
2013-01-10 03:35:00,49.9,48.4,29.46,SSW,203,3.4,5.4,95,0.00,,,0.00,WUHU216HW,2013-01-10 09:35:00,
2013-01-10 03:40:00,49.9,48.4,29.46,SSE,158,2.7,5.4,95,0.00,,,0.00,WUHU216HW,2013-01-10 09:40:00,
2013-01-10 03:45:00,49.9,48.4,29.47,WSW,248,4.0,4.5,95,0.00,,,0.00,WUHU216HW,2013-01-10 09:45:00,
2013-01-10 03:50:00,49.9,48.4,29.46,SSE,158,2.2,5.4,95,0.00,,,0.00,WUHU216HW,2013-01-10 09:50:00,
2013-01-10 03:55:00,49.9,48.4,29.46,WSW,248,5.8,7.2,95,0.00,,,0.00,WUHU216HW,2013-01-10 09:55:00,
2013-01-10 04:00:00,49.7,48.2,29.46,WSW,248,5.4,9.2,95,0.00,,,0.00,WUHU216HW,2013-01-10 10:00:00,
2013-01-10 04:05:00,49.7,48.2,29.46,SW,225,2.7,9.2,95,0.00,,,0.00,WUHU216HW,2013-01-10 10:05:00,
2013-01-10 04:10:00,49.7,48.2,29.46,SSW,203,4.7,8.5,95,0.00,,,0.00,WUHU216HW,2013-01-10 10:10:00,
2013-01-10 04:15:00,49.5,48.1,29.46,SW,225,4.7,5.1,95,0.00,,,0.00,WUHU216HW,2013-01-10 10:15:00,
2013-01-10 04:20:00,49.5,48.1,29.46,WSW,248,4.0,6.9,95,0.00,,,0.00,WUHU216HW,2013-01-10 10:20:00,
2013-01-10 04:25:00,49.5,48.1,29.46,SSW,203,5.4,7.4,95,0.00,,,0.00,WUHU216HW,2013-01-10 10:25:00,
2013-01-10 04:30:00,49.3,47.9,29.46,WSW,248,5.6,7.4,95,0.00,,,0.00,WUHU216HW,2013-01-10 10:30:00,
2013-01-10 04:35:00,49.3,47.6,29.46,SSW,203,2.0,5.6,94,0.00,,,0.00,WUHU216HW,2013-01-10 10:35:00,
2013-01-10 04:40:00,49.3,47.6,29.46,WSW,248,2.5,5.6,94,0.00,,,0.00,WUHU216HW,2013-01-10 10:40:00,
2013-01-10 04:45:00,49.3,47.6,29.46,SW,225,3.6,4.3,94,0.00,,,0.00,WUHU216HW,2013-01-10 10:45:00,
2013-01-10 04:50:00,49.3,47.6,29.46,West,270,7.4,7.4,94,0.00,,,0.00,WUHU216HW,2013-01-10 10:50:00,
2013-01-10 04:55:00,49.3,47.9,29.46,WSW,248,7.6,7.6,95,0.00,,,0.00,WUHU216HW,2013-01-10 10:55:00,
2013-01-10 05:00:00,49.1,47.7,29.46,West,270,4.0,7.6,95,0.00,,,0.00,WUHU216HW,2013-01-10 11:00:00,
2013-01-10 05:05:00,49.0,47.4,29.45,WSW,248,4.5,5.6,94,0.00,,,0.00,WUHU216HW,2013-01-10 11:05:00,
2013-01-10 05:10:00,49.0,47.4,29.45,WSW,248,5.1,6.9,94,0.00,,,0.00,WUHU216HW,2013-01-10 11:10:00,
2013-01-10 05:15:00,49.0,47.4,29.45,West,270,4.7,6.9,94,0.00,,,0.00,WUHU216HW,2013-01-10 11:15:00,
2013-01-10 05:20:00,48.8,47.2,29.45,WSW,248,2.0,6.3,94,0.00,,,0.00,WUHU216HW,2013-01-10 11:20:00,
2013-01-10 05:26:00,48.8,47.2,29.45,WSW,248,3.8,4.7,94,0.00,,,0.00,WUHU216HW,2013-01-10 11:26:00,
2013-01-10 05:31:00,48.6,47.0,29.45,WSW,248,4.9,4.9,94,0.00,,,0.00,WUHU216HW,2013-01-10 11:31:00,
2013-01-10 05:36:00,48.6,47.0,29.44,WSW,248,2.5,4.9,94,0.00,,,0.00,WUHU216HW,2013-01-10 11:36:00,
2013-01-10 05:41:00,48.6,47.0,29.44,WSW,248,5.6,5.6,94,0.00,,,0.00,WUHU216HW,2013-01-10 11:41:00,
2013-01-10 05:46:00,48.2,46.6,29.44,NW,315,4.7,5.6,94,0.00,,,0.00,WUHU216HW,2013-01-10 11:46:00,
2013-01-10 05:51:00,48.1,46.4,29.44,WSW,248,4.7,5.4,94,0.00,,,0.00,WUHU216HW,2013-01-10 11:51:00,
2013-01-10 05:56:00,47.7,46.1,29.44,WSW,248,3.1,6.7,94,0.00,,,0.00,WUHU216HW,2013-01-10 11:56:00,
2013-01-10 06:01:00,47.5,45.9,29.44,SW,225,4.0,6.7,94,0.00,,,0.00,WUHU216HW,2013-01-10 12:01:00,
2013-01-10 06:06:00,47.2,45.5,29.44,WSW,248,3.8,5.8,94,0.00,,,0.00,WUHU216HW,2013-01-10 12:06:00,
2013-01-10 06:11:00,47.0,45.4,29.44,West,270,3.8,6.9,94,0.00,,,0.00,WUHU216HW,2013-01-10 12:11:00,
2013-01-10 06:16:00,46.8,45.2,29.44,West,270,2.2,6.9,94,0.00,,,0.00,WUHU216HW,2013-01-10 12:16:00,
2013-01-10 06:21:00,46.6,45.0,29.44,SW,225,2.5,5.8,94,0.00,,,0.00,WUHU216HW,2013-01-10 12:21:00,
2013-01-10 06:26:00,46.4,44.8,29.44,WSW,248,4.7,5.8,94,0.00,,,0.00,WUHU216HW,2013-01-10 12:26:00,
2013-01-10 06:31:00,46.3,44.6,29.44,WSW,248,1.8,4.7,94,0.00,,,0.00,WUHU216HW,2013-01-10 12:31:00,
2013-01-10 06:36:00,46.3,44.6,29.45,WSW,248,1.1,3.4,94,0.00,,,0.00,WUHU216HW,2013-01-10 12:36:00,
2013-01-10 06:41:00,46.1,44.5,29.44,WSW,248,2.2,3.4,94,0.00,,,0.00,WUHU216HW,2013-01-10 12:41:00,
2013-01-10 06:46:00,45.9,44.3,29.45,West,270,4.9,5.4,94,0.00,,,0.00,WUHU216HW,2013-01-10 12:46:00,
2013-01-10 06:51:00,45.9,44.3,29.44,SW,225,7.2,7.2,94,0.00,,,0.00,WUHU216HW,2013-01-10 12:51:00,
2013-01-10 06:56:00,45.7,43.8,29.44,WSW,248,2.9,7.2,93,0.00,,,0.00,WUHU216HW,2013-01-10 12:56:00,
2013-01-10 07:01:00,45.7,43.8,29.44,WSW,248,2.5,6.7,93,0.00,,,0.00,WUHU216HW,2013-01-10 13:01:00,
2013-01-10 07:06:00,45.7,43.8,29.44,WSW,248,4.0,6.7,93,0.00,,,0.00,WUHU216HW,2013-01-10 13:06:00,
2013-01-10 07:11:00,45.5,43.7,29.45,WSW,248,1.8,4.0,93,0.00,,,0.00,WUHU216HW,2013-01-10 13:11:00,
2013-01-10 07:16:00,45.4,43.5,29.45,SSW,203,2.0,4.0,93,0.00,,,0.00,WUHU216HW,2013-01-10 13:16:00,
2013-01-10 07:21:00,45.2,43.3,29.45,WSW,248,2.5,3.1,93,0.00,,,0.00,WUHU216HW,2013-01-10 13:21:00,
2013-01-10 07:26:00,45.0,43.1,29.45,West,270,1.3,2.5,93,0.00,,,0.00,WUHU216HW,2013-01-10 13:26:00,
2013-01-10 07:31:00,45.0,43.1,29.45,SW,225,1.3,2.5,93,0.00,,,0.00,WUHU216HW,2013-01-10 13:31:00,
2013-01-10 07:36:00,45.0,43.1,29.45,South,180,2.7,2.7,93,0.00,,,0.00,WUHU216HW,2013-01-10 13:36:00,
2013-01-10 07:41:00,45.0,43.1,29.45,SW,225,1.8,2.7,93,0.00,,,0.00,WUHU216HW,2013-01-10 13:41:00,
2013-01-10 07:46:00,45.0,43.1,29.46,West,270,1.1,1.8,93,0.00,,,0.00,WUHU216HW,2013-01-10 13:46:00,
2013-01-10 07:52:00,45.0,43.4,29.46,West,270,1.6,2.0,94,0.00,,,0.00,WUHU216HW,2013-01-10 13:52:00,
2013-01-10 07:57:00,45.2,43.6,29.46,NW,315,0.4,2.0,94,0.00,,,0.00,WUHU216HW,2013-01-10 13:57:00,
2013-01-10 08:02:00,45.2,43.3,29.46,NNW,338,0.9,1.8,93,0.00,,,0.00,WUHU216HW,2013-01-10 14:02:00,
2013-01-10 08:07:00,45.0,43.1,29.47,NNW,338,0.4,2.9,93,0.00,,,0.00,WUHU216HW,2013-01-10 14:07:00,
2013-01-10 08:12:00,45.0,43.1,29.47,NW,315,5.4,5.4,93,0.00,,,0.00,WUHU216HW,2013-01-10 14:12:00,
2013-01-10 08:17:00,45.2,43.0,29.47,West,270,5.6,5.6,92,0.00,,,0.00,WUHU216HW,2013-01-10 14:17:00,
2013-01-10 08:22:00,45.5,43.1,29.47,West,270,3.4,5.6,91,0.00,,,0.00,WUHU216HW,2013-01-10 14:22:00,
2013-01-10 08:27:00,45.7,43.3,29.47,WSW,248,4.5,5.4,91,0.00,,,0.00,WUHU216HW,2013-01-10 14:27:00,
2013-01-10 08:32:00,45.9,43.5,29.47,West,270,4.0,5.4,91,0.00,,,0.00,WUHU216HW,2013-01-10 14:32:00,
2013-01-10 08:37:00,46.3,42.9,29.46,West,270,5.6,8.7,88,0.00,,,0.00,WUHU216HW,2013-01-10 14:37:00,
2013-01-10 08:42:00,46.6,43.7,29.47,NNW,338,3.6,8.7,89,0.00,,,0.00,WUHU216HW,2013-01-10 14:42:00,
2013-01-10 08:47:00,46.8,43.5,29.47,WNW,293,4.0,7.6,88,0.00,,,0.00,WUHU216HW,2013-01-10 14:47:00,
2013-01-10 08:52:00,47.2,43.6,29.46,West,270,4.5,7.2,87,0.00,,,0.00,WUHU216HW,2013-01-10 14:52:00,
2013-01-10 08:58:00,47.7,43.8,29.46,West,270,5.8,7.2,86,0.00,,,0.00,WUHU216HW,2013-01-10 14:58:00,
2013-01-10 09:03:00,48.1,43.1,29.46,WNW,293,6.3,11.6,83,0.00,,,0.00,WUHU216HW,2013-01-10 15:03:00,
2013-01-10 09:08:00,48.6,43.7,29.46,WNW,293,7.2,11.6,83,0.00,,,0.00,WUHU216HW,2013-01-10 15:08:00,
2013-01-10 09:13:00,49.0,43.7,29.46,NW,315,3.6,7.6,82,0.00,,,0.00,WUHU216HW,2013-01-10 15:13:00,
2013-01-10 09:18:00,49.5,43.8,29.45,West,270,6.9,7.6,81,0.00,,,0.00,WUHU216HW,2013-01-10 15:18:00,
2013-01-10 09:23:00,50.0,43.7,29.45,NW,315,6.3,8.9,79,0.00,,,0.00,WUHU216HW,2013-01-10 15:23:00,
2013-01-10 09:28:00,50.6,43.7,29.45,West,270,12.3,12.3,77,0.00,,,0.00,WUHU216HW,2013-01-10 15:28:00,
2013-01-10 09:33:00,50.9,43.3,29.45,WSW,248,7.4,15.0,75,0.00,,,0.00,WUHU216HW,2013-01-10 15:33:00,
2013-01-10 09:38:00,51.1,43.8,29.45,West,270,10.1,15.0,76,0.00,,,0.00,WUHU216HW,2013-01-10 15:38:00,
2013-01-10 09:43:00,51.5,44.2,29.45,West,270,6.9,10.1,76,0.00,,,0.00,WUHU216HW,2013-01-10 15:43:00,
2013-01-10 09:48:00,51.5,43.8,29.45,WNW,293,7.8,9.8,75,0.00,,,0.00,WUHU216HW,2013-01-10 15:48:00,
2013-01-10 09:53:00,52.0,44.4,29.45,WNW,293,11.6,11.6,75,0.00,,,0.00,WUHU216HW,2013-01-10 15:53:00,
2013-01-10 09:58:00,52.4,43.7,29.45,WNW,293,13.9,13.9,72,0.00,,,0.00,WUHU216HW,2013-01-10 15:58:00,
2013-01-10 10:03:00,52.7,44.0,29.45,WSW,248,10.5,13.9,72,0.00,,,0.00,WUHU216HW,2013-01-10 16:03:00,
2013-01-10 10:08:00,53.1,44.3,29.45,West,270,11.6,13.4,72,0.00,,,0.00,WUHU216HW,2013-01-10 16:08:00,
2013-01-10 10:13:00,53.3,44.5,29.45,NW,315,6.9,12.8,72,0.00,,,0.00,WUHU216HW,2013-01-10 16:13:00,
2013-01-10 10:18:00,53.8,45.0,29.46,SW,225,10.3,12.5,72,0.00,,,0.00,WUHU216HW,2013-01-10 16:18:00,
2013-01-10 10:23:00,54.4,44.8,29.45,SW,225,8.7,13.2,70,0.00,,,0.00,WUHU216HW,2013-01-10 16:23:00,
2013-01-10 10:28:00,54.5,44.6,29.45,West,270,9.2,13.2,69,0.00,,,0.00,WUHU216HW,2013-01-10 16:28:00,
2013-01-10 10:33:00,54.9,44.1,29.45,West,270,13.6,19.0,67,0.00,,,0.00,WUHU216HW,2013-01-10 16:33:00,
2013-01-10 10:38:00,55.3,44.5,29.45,WNW,293,8.9,19.0,67,0.00,,,0.00,WUHU216HW,2013-01-10 16:38:00,
2013-01-10 10:44:00,55.4,45.5,29.45,WSW,248,7.8,15.0,69,0.00,,,0.00,WUHU216HW,2013-01-10 16:44:00,
2013-01-10 10:49:00,55.8,44.6,29.45,WSW,248,17.9,17.9,66,0.00,,,0.00,WUHU216HW,2013-01-10 16:49:00,
2013-01-10 10:54:00,56.0,43.9,29.45,West,270,9.6,17.9,64,0.00,,,0.00,WUHU216HW,2013-01-10 16:54:00,
2013-01-10 10:59:00,56.5,44.5,29.45,WSW,248,9.2,17.4,64,0.00,,,0.00,WUHU216HW,2013-01-10 16:59:00,
2013-01-10 11:04:00,56.5,43.2,29.45,WNW,293,12.5,16.3,61,0.00,,,0.00,WUHU216HW,2013-01-10 17:04:00,
2013-01-10 11:09:00,56.7,43.8,29.45,WNW,293,12.1,16.3,62,0.00,,,0.00,WUHU216HW,2013-01-10 17:09:00,
2013-01-10 11:14:00,57.1,44.2,29.45,West,270,7.6,12.1,62,0.00,,,0.00,WUHU216HW,2013-01-10 17:14:00,
2013-01-10 11:19:00,57.1,44.6,29.46,WSW,248,3.6,11.4,63,0.00,,,0.00,WUHU216HW,2013-01-10 17:19:00,
2013-01-10 11:24:00,57.4,44.1,29.45,WSW,248,11.4,11.4,61,0.00,,,0.00,WUHU216HW,2013-01-10 17:24:00,
2013-01-10 11:29:00,57.6,44.6,29.45,WSW,248,4.5,11.4,62,0.00,,,0.00,WUHU216HW,2013-01-10 17:29:00,
2013-01-10 11:34:00,58.0,45.0,29.45,SW,225,11.0,14.3,62,0.00,,,0.00,WUHU216HW,2013-01-10 17:34:00,
2013-01-10 11:39:00,58.1,44.4,29.45,WSW,248,10.7,14.3,60,0.00,,,0.00,WUHU216HW,2013-01-10 17:39:00,
2013-01-10 11:44:00,58.3,44.9,29.45,WNW,293,6.3,14.1,61,0.00,,,0.00,WUHU216HW,2013-01-10 17:44:00,
2013-01-10 11:50:00,58.5,43.7,29.45,West,270,6.7,13.4,58,0.00,,,0.00,WUHU216HW,2013-01-10 17:50:00,
2013-01-10 11:55:00,58.9,44.1,29.45,WSW,248,6.9,13.2,58,0.00,,,0.00,WUHU216HW,2013-01-10 17:55:00,
2013-01-10 12:00:00,59.0,44.3,29.45,WNW,293,11.0,13.2,58,0.00,,,0.00,WUHU216HW,2013-01-10 18:00:00,
2013-01-10 12:05:00,59.2,44.5,29.44,NW,315,5.1,11.0,58,0.00,,,0.00,WUHU216HW,2013-01-10 18:05:00,
2013-01-10 12:10:00,59.4,44.7,29.43,NW,315,6.5,12.3,58,0.00,,,0.00,WUHU216HW,2013-01-10 18:10:00,
2013-01-10 12:15:00,59.4,44.1,29.42,WSW,248,5.4,12.3,57,0.00,,,0.00,WUHU216HW,2013-01-10 18:15:00,
2013-01-10 12:20:00,59.8,44.5,29.43,WNW,293,6.9,10.1,57,0.00,,,0.00,WUHU216HW,2013-01-10 18:20:00,
2013-01-10 12:25:00,60.1,44.8,29.42,SW,225,7.6,10.5,57,0.00,,,0.00,WUHU216HW,2013-01-10 18:25:00,
2013-01-10 12:30:00,60.1,44.4,29.43,NW,315,6.7,10.5,56,0.00,,,0.00,WUHU216HW,2013-01-10 18:30:00,
2013-01-10 12:35:00,60.1,44.4,29.43,NW,315,5.4,11.4,56,0.00,,,0.00,WUHU216HW,2013-01-10 18:35:00,
2013-01-10 12:40:00,60.3,44.0,29.43,WNW,293,7.6,11.4,55,0.00,,,0.00,WUHU216HW,2013-01-10 18:40:00,
2013-01-10 12:45:00,60.3,44.6,29.43,NW,315,6.5,7.6,56,0.00,,,0.00,WUHU216HW,2013-01-10 18:45:00,
2013-01-10 12:50:00,60.3,45.0,29.42,West,270,3.6,7.6,57,0.00,,,0.00,WUHU216HW,2013-01-10 18:50:00,
2013-01-10 12:55:00,60.5,44.7,29.43,WNW,293,8.7,8.7,56,0.00,,,0.00,WUHU216HW,2013-01-10 18:55:00,
2013-01-10 13:00:00,60.7,44.8,29.43,WSW,248,7.4,8.7,56,0.00,,,0.00,WUHU216HW,2013-01-10 19:00:00,
2013-01-10 13:05:00,61.0,45.7,29.42,WNW,293,1.8,7.6,57,0.00,,,0.00,WUHU216HW,2013-01-10 19:05:00,
2013-01-10 13:10:00,61.2,45.8,29.43,WNW,293,4.7,7.6,57,0.00,,,0.00,WUHU216HW,2013-01-10 19:10:00,
2013-01-10 13:15:00,61.4,44.6,29.42,West,270,2.5,6.9,54,0.00,,,0.00,WUHU216HW,2013-01-10 19:15:00,
2013-01-10 13:20:00,61.6,45.7,29.42,NNW,338,4.3,6.9,56,0.00,,,0.00,WUHU216HW,2013-01-10 19:20:00,
2013-01-10 13:25:00,61.7,46.4,29.42,West,270,2.7,5.4,57,0.00,,,0.00,WUHU216HW,2013-01-10 19:25:00,
2013-01-10 13:30:00,61.9,47.0,29.42,SSW,203,4.7,5.4,58,0.00,,,0.00,WUHU216HW,2013-01-10 19:30:00,
2013-01-10 13:35:00,61.7,45.8,29.42,WSW,248,2.2,4.7,56,0.00,,,0.00,WUHU216HW,2013-01-10 19:35:00,
2013-01-10 13:40:00,61.9,45.6,29.42,WSW,248,2.7,5.6,55,0.00,,,0.00,WUHU216HW,2013-01-10 19:40:00,
2013-01-10 13:45:00,62.1,45.7,29.42,West,270,1.3,5.6,55,0.00,,,0.00,WUHU216HW,2013-01-10 19:45:00,
2013-01-10 13:50:00,62.3,44.9,29.41,WSW,248,6.3,8.1,53,0.00,,,0.00,WUHU216HW,2013-01-10 19:50:00,
2013-01-10 13:55:00,62.3,45.8,29.42,SSW,203,3.4,8.1,55,0.00,,,0.00,WUHU216HW,2013-01-10 19:55:00,
2013-01-10 14:00:00,62.3,44.9,29.41,SW,225,1.8,8.9,53,0.00,,,0.00,WUHU216HW,2013-01-10 20:00:00,
2013-01-10 14:05:00,62.3,44.4,29.41,West,270,2.5,8.9,52,0.00,,,0.00,WUHU216HW,2013-01-10 20:05:00,
2013-01-10 14:10:00,62.6,45.2,29.41,South,180,4.5,5.4,53,0.00,,,0.00,WUHU216HW,2013-01-10 20:10:00,
2013-01-10 14:15:00,62.6,45.2,29.40,NW,315,2.7,5.4,53,0.00,,,0.00,WUHU216HW,2013-01-10 20:15:00,
2013-01-10 14:20:00,62.6,45.7,29.40,SW,225,5.4,6.0,54,0.00,,,0.00,WUHU216HW,2013-01-10 20:20:00,
2013-01-10 14:25:00,62.8,45.4,29.40,SW,225,2.7,10.5,53,0.00,,,0.00,WUHU216HW,2013-01-10 20:25:00,
2013-01-10 14:30:00,63.0,46.0,29.40,West,270,2.9,10.5,54,0.00,,,0.00,WUHU216HW,2013-01-10 20:30:00,
2013-01-10 14:35:00,63.4,45.4,29.40,SW,225,7.4,8.1,52,0.00,,,0.00,WUHU216HW,2013-01-10 20:35:00,
2013-01-10 14:40:00,63.4,45.4,29.40,NNW,338,1.8,8.9,52,0.00,,,0.00,WUHU216HW,2013-01-10 20:40:00,
2013-01-10 14:45:00,63.2,46.2,29.40,SE,135,3.8,8.9,54,0.00,,,0.00,WUHU216HW,2013-01-10 20:45:00,
2013-01-10 14:50:00,63.5,45.6,29.40,WNW,293,2.9,3.8,52,0.00,,,0.00,WUHU216HW,2013-01-10 20:50:00,
2013-01-10 14:55:00,63.5,46.5,29.40,WSW,248,3.1,4.5,54,0.00,,,0.00,WUHU216HW,2013-01-10 20:55:00,
2013-01-10 15:00:00,63.7,45.2,29.39,WSW,248,10.5,10.5,51,0.00,,,0.00,WUHU216HW,2013-01-10 21:00:00,
2013-01-10 15:05:00,63.9,44.9,29.40,NNW,338,7.4,12.3,50,0.00,,,0.00,WUHU216HW,2013-01-10 21:05:00,
2013-01-10 15:10:00,63.7,45.2,29.40,NW,315,5.4,12.3,51,0.00,,,0.00,WUHU216HW,2013-01-10 21:10:00,
2013-01-10 15:16:00,63.9,44.9,29.40,WNW,293,2.9,8.1,50,0.00,,,0.00,WUHU216HW,2013-01-10 21:16:00,
2013-01-10 15:21:00,64.1,45.0,29.39,WSW,248,1.8,6.3,50,0.00,,,0.00,WUHU216HW,2013-01-10 21:21:00,
2013-01-10 15:26:00,64.1,46.5,29.40,WNW,293,2.7,5.4,53,0.00,,,0.00,WUHU216HW,2013-01-10 21:26:00,
2013-01-10 15:31:00,64.4,46.4,29.39,West,270,1.8,5.4,52,0.00,,,0.00,WUHU216HW,2013-01-10 21:31:00,
2013-01-10 15:36:00,64.4,44.8,29.40,SW,225,5.6,5.6,49,0.00,,,0.00,WUHU216HW,2013-01-10 21:36:00,
2013-01-10 15:41:00,64.3,45.7,29.40,SSE,158,2.7,5.6,51,0.00,,,0.00,WUHU216HW,2013-01-10 21:41:00,
2013-01-10 15:46:00,64.4,46.8,29.40,SSW,203,1.8,5.1,53,0.00,,,0.00,WUHU216HW,2013-01-10 21:46:00,
2013-01-10 15:51:00,64.4,46.4,29.40,SW,225,3.6,5.6,52,0.00,,,0.00,WUHU216HW,2013-01-10 21:51:00,
2013-01-10 15:56:00,64.4,46.4,29.40,West,270,6.3,8.5,52,0.00,,,0.00,WUHU216HW,2013-01-10 21:56:00,
2013-01-10 16:01:00,64.4,45.4,29.40,WSW,248,8.7,8.7,50,0.00,,,0.00,WUHU216HW,2013-01-10 22:01:00,
2013-01-10 16:06:00,64.4,46.8,29.40,SSW,203,2.2,8.7,53,0.00,,,0.00,WUHU216HW,2013-01-10 22:06:00,
2013-01-10 16:11:00,64.4,46.8,29.40,SW,225,3.4,6.9,53,0.00,,,0.00,WUHU216HW,2013-01-10 22:11:00,
2013-01-10 16:16:00,64.4,46.8,29.40,SW,225,2.9,5.6,53,0.00,,,0.00,WUHU216HW,2013-01-10 22:16:00,
2013-01-10 16:21:00,64.4,45.8,29.40,WNW,293,2.7,6.0,51,0.00,,,0.00,WUHU216HW,2013-01-10 22:21:00,
2013-01-10 16:26:00,64.3,45.7,29.40,West,270,3.1,6.0,51,0.00,,,0.00,WUHU216HW,2013-01-10 22:26:00,
2013-01-10 16:31:00,64.4,46.4,29.40,SW,225,3.6,5.4,52,0.00,,,0.00,WUHU216HW,2013-01-10 22:31:00,
2013-01-10 16:36:00,64.3,46.6,29.40,SW,225,2.9,4.5,53,0.00,,,0.00,WUHU216HW,2013-01-10 22:36:00,
2013-01-10 16:41:00,64.3,46.2,29.40,WNW,293,1.8,4.5,52,0.00,,,0.00,WUHU216HW,2013-01-10 22:41:00,
2013-01-10 16:46:00,64.3,46.6,29.40,SW,225,2.7,3.8,53,0.00,,,0.00,WUHU216HW,2013-01-10 22:46:00,
2013-01-10 16:51:00,64.3,46.6,29.40,SSW,203,3.6,6.0,53,0.00,,,0.00,WUHU216HW,2013-01-10 22:51:00,
2013-01-10 16:56:00,64.1,46.5,29.40,WSW,248,1.3,6.0,53,0.00,,,0.00,WUHU216HW,2013-01-10 22:56:00,
2013-01-10 17:01:00,63.9,46.4,29.40,WSW,248,3.4,3.4,53,0.00,,,0.00,WUHU216HW,2013-01-10 23:01:00,
2013-01-10 17:06:00,63.7,46.6,29.40,SSW,203,2.9,3.4,54,0.00,,,0.00,WUHU216HW,2013-01-10 23:06:00,
2013-01-10 17:12:00,63.7,46.6,29.40,SSW,203,4.0,4.0,54,0.00,,,0.00,WUHU216HW,2013-01-10 23:12:00,
2013-01-10 17:17:00,63.4,46.4,29.40,SW,225,2.5,4.3,54,0.00,,,0.00,WUHU216HW,2013-01-10 23:17:00,
2013-01-10 17:22:00,63.2,45.2,29.41,SW,225,1.8,4.3,52,0.00,,,0.00,WUHU216HW,2013-01-10 23:22:00,
2013-01-10 17:27:00,63.2,46.2,29.40,SW,225,4.3,4.3,54,0.00,,,0.00,WUHU216HW,2013-01-10 23:27:00,
2013-01-10 17:32:00,62.8,46.4,29.40,WSW,248,1.8,4.3,55,0.00,,,0.00,WUHU216HW,2013-01-10 23:32:00,
2013-01-10 17:37:00,62.6,46.2,29.40,SSW,203,2.2,4.5,55,0.00,,,0.00,WUHU216HW,2013-01-10 23:37:00,
2013-01-10 17:42:00,62.3,46.4,29.40,South,180,2.2,4.5,56,0.00,,,0.00,WUHU216HW,2013-01-10 23:42:00,
2013-01-10 17:47:00,61.9,46.5,29.40,SSW,203,4.7,5.4,57,0.00,,,0.00,WUHU216HW,2013-01-10 23:47:00,
2013-01-10 17:52:00,61.4,46.0,29.40,South,180,2.9,5.4,57,0.00,,,0.00,WUHU216HW,2013-01-10 23:52:00,
2013-01-10 17:57:00,61.0,46.2,29.40,SSW,203,1.8,4.5,58,0.00,,,0.00,WUHU216HW,2013-01-10 23:57:00,
2013-01-10 18:02:00,60.7,45.8,29.40,South,180,1.8,4.0,58,0.00,,,0.00,WUHU216HW,2013-01-11 00:02:00,
2013-01-10 18:07:00,60.3,46.0,29.40,South,180,2.2,4.7,59,0.00,,,0.00,WUHU216HW,2013-01-11 00:07:00,
2013-01-10 18:12:00,59.9,46.1,29.41,SSW,203,2.7,4.7,60,0.00,,,0.00,WUHU216HW,2013-01-11 00:12:00,
2013-01-10 18:17:00,59.6,45.7,29.40,SW,225,5.4,5.4,60,0.00,,,0.00,WUHU216HW,2013-01-11 00:17:00,
2013-01-10 18:22:00,59.4,45.5,29.41,SW,225,2.9,5.4,60,0.00,,,0.00,WUHU216HW,2013-01-11 00:22:00,
2013-01-10 18:27:00,59.2,45.8,29.41,South,180,1.8,4.5,61,0.00,,,0.00,WUHU216HW,2013-01-11 00:27:00,
2013-01-10 18:32:00,58.9,45.0,29.42,SW,225,2.7,3.4,60,0.00,,,0.00,WUHU216HW,2013-01-11 00:32:00,
2013-01-10 18:37:00,58.7,45.3,29.42,SSW,203,2.9,4.3,61,0.00,,,0.00,WUHU216HW,2013-01-11 00:37:00,
2013-01-10 18:42:00,58.5,45.1,29.42,SW,225,2.9,4.3,61,0.00,,,0.00,WUHU216HW,2013-01-11 00:42:00,
2013-01-10 18:47:00,58.3,44.9,29.42,SSW,203,1.8,4.0,61,0.00,,,0.00,WUHU216HW,2013-01-11 00:47:00,
2013-01-10 18:52:00,58.0,45.0,29.42,SSW,203,2.9,4.0,62,0.00,,,0.00,WUHU216HW,2013-01-11 00:52:00,
2013-01-10 18:57:00,57.8,44.8,29.42,SW,225,2.5,4.0,62,0.00,,,0.00,WUHU216HW,2013-01-11 00:57:00,
2013-01-10 19:02:00,57.4,44.6,29.42,SSW,203,2.5,4.0,62,0.00,,,0.00,WUHU216HW,2013-01-11 01:02:00,
2013-01-10 19:07:00,57.2,44.7,29.42,SW,225,3.4,3.4,63,0.00,,,0.00,WUHU216HW,2013-01-11 01:07:00,
2013-01-10 19:12:00,56.9,44.4,29.42,SSE,158,2.5,3.4,63,0.00,,,0.00,WUHU216HW,2013-01-11 01:12:00,
2013-01-10 19:17:00,56.7,44.7,29.42,SSW,203,2.2,2.5,64,0.00,,,0.00,WUHU216HW,2013-01-11 01:17:00,
2013-01-10 19:22:00,56.5,44.5,29.42,SSW,203,2.0,3.8,64,0.00,,,0.00,WUHU216HW,2013-01-11 01:22:00,
2013-01-10 19:27:00,56.3,44.3,29.42,South,180,3.1,3.8,64,0.00,,,0.00,WUHU216HW,2013-01-11 01:27:00,
2013-01-10 19:33:00,56.2,44.1,29.42,SSW,203,2.0,4.5,64,0.00,,,0.00,WUHU216HW,2013-01-11 01:33:00,
2013-01-10 19:37:00,56.0,44.4,29.42,SSW,203,1.3,4.5,65,0.00,,,0.00,WUHU216HW,2013-01-11 01:37:00,
2013-01-10 19:43:00,55.8,44.2,29.42,SE,135,0.9,2.9,65,0.00,,,0.00,WUHU216HW,2013-01-11 01:43:00,
2013-01-10 19:48:00,55.8,44.2,29.43,SSW,203,1.1,1.8,65,0.00,,,0.00,WUHU216HW,2013-01-11 01:48:00,
2013-01-10 19:53:00,55.4,44.3,29.42,WSW,248,1.1,1.8,66,0.00,,,0.00,WUHU216HW,2013-01-11 01:53:00,
2013-01-10 19:58:00,54.9,43.8,29.42,SE,135,1.8,1.8,66,0.00,,,0.00,WUHU216HW,2013-01-11 01:58:00,
2013-01-10 20:03:00,54.5,43.8,29.42,SSE,158,1.1,2.0,67,0.00,,,0.00,WUHU216HW,2013-01-11 02:03:00,
2013-01-10 20:08:00,54.5,44.2,29.42,South,180,3.4,3.4,68,0.00,,,0.00,WUHU216HW,2013-01-11 02:08:00,
2013-01-10 20:13:00,54.5,44.2,29.42,SSE,158,2.5,4.0,68,0.00,,,0.00,WUHU216HW,2013-01-11 02:13:00,
2013-01-10 20:18:00,54.5,44.2,29.42,SSE,158,2.7,4.0,68,0.00,,,0.00,WUHU216HW,2013-01-11 02:18:00,
2013-01-10 20:23:00,54.5,44.2,29.42,South,180,1.1,2.9,68,0.00,,,0.00,WUHU216HW,2013-01-11 02:23:00,
2013-01-10 20:28:00,54.4,44.5,29.42,SW,225,0.0,2.9,69,0.00,,,0.00,WUHU216HW,2013-01-11 02:28:00,
2013-01-10 20:33:00,54.0,44.1,29.43,SSW,203,0.0,2.2,69,0.00,,,0.00,WUHU216HW,2013-01-11 02:33:00,
2013-01-10 20:38:00,53.5,43.6,29.43,SSW,203,0.0,2.5,69,0.00,,,0.00,WUHU216HW,2013-01-11 02:38:00,
2013-01-10 20:43:00,52.9,43.5,29.43,SE,135,0.4,2.5,70,0.00,,,0.00,WUHU216HW,2013-01-11 02:43:00,
2013-01-10 20:48:00,52.6,43.5,29.43,SSW,203,0.4,1.3,71,0.00,,,0.00,WUHU216HW,2013-01-11 02:48:00,
2013-01-10 20:53:00,52.2,43.5,29.43,NW,315,0.0,1.3,72,0.00,,,0.00,WUHU216HW,2013-01-11 02:53:00,
2013-01-10 20:58:00,51.8,43.2,29.43,NW,315,0.0,0.0,72,0.00,,,0.00,WUHU216HW,2013-01-11 02:58:00,
2013-01-10 21:03:00,51.7,43.0,29.43,South,180,0.7,0.7,72,0.00,,,0.00,WUHU216HW,2013-01-11 03:03:00,
2013-01-10 21:08:00,51.5,42.9,29.43,SE,135,0.4,1.1,72,0.00,,,0.00,WUHU216HW,2013-01-11 03:08:00,
2013-01-10 21:13:00,51.5,42.9,29.42,South,180,0.7,1.1,72,0.00,,,0.00,WUHU216HW,2013-01-11 03:13:00,
2013-01-10 21:18:00,51.5,42.9,29.42,WSW,248,0.0,0.9,72,0.00,,,0.00,WUHU216HW,2013-01-11 03:18:00,
2013-01-10 21:24:00,51.3,42.9,29.43,WSW,248,0.0,0.4,73,0.00,,,0.00,WUHU216HW,2013-01-11 03:24:00,
2013-01-10 21:29:00,50.9,42.6,29.43,WSW,248,0.0,0.0,73,0.00,,,0.00,WUHU216HW,2013-01-11 03:29:00,
2013-01-10 21:34:00,50.6,42.6,29.43,NW,315,0.0,0.0,74,0.00,,,0.00,WUHU216HW,2013-01-11 03:34:00,
2013-01-10 21:39:00,50.2,42.2,29.43,NNW,338,0.0,0.0,74,0.00,,,0.00,WUHU216HW,2013-01-11 03:39:00,
2013-01-10 21:44:00,50.0,42.4,29.42,NNW,338,0.0,0.0,75,0.00,,,0.00,WUHU216HW,2013-01-11 03:44:00,
2013-01-10 21:49:00,49.7,42.0,29.43,NNW,338,0.4,0.4,75,0.00,,,0.00,WUHU216HW,2013-01-11 03:49:00,
2013-01-10 21:54:00,49.5,42.2,29.43,NNW,338,0.0,0.4,76,0.00,,,0.00,WUHU216HW,2013-01-11 03:54:00,
2013-01-10 21:59:00,49.3,42.4,29.43,NNW,338,0.0,0.0,77,0.00,,,0.00,WUHU216HW,2013-01-11 03:59:00,
2013-01-10 22:04:00,49.3,42.4,29.43,NNW,338,0.0,0.0,77,0.00,,,0.00,WUHU216HW,2013-01-11 04:04:00,
2013-01-10 22:09:00,49.3,42.4,29.43,NNW,338,0.0,0.0,77,0.00,,,0.00,WUHU216HW,2013-01-11 04:09:00,
2013-01-10 22:14:00,49.3,42.4,29.43,NNW,338,0.0,0.0,77,0.00,,,0.00,WUHU216HW,2013-01-11 04:14:00,
2013-01-10 22:19:00,49.3,42.4,29.43,NNW,338,0.0,0.0,77,0.00,,,0.00,WUHU216HW,2013-01-11 04:19:00,
2013-01-10 23:00:00,48.1,42.1,29.43,ESE,113,1.1,1.1,80,0.00,,,0.00,WUHU216HW,2013-01-11 05:00:00,
2013-01-10 23:01:00,48.1,42.1,29.43,ESE,113,1.1,1.1,80,0.00,,,0.00,WUHU216HW,2013-01-11 05:01:00,
2013-01-10 23:02:00,48.1,42.1,29.43,ESE,113,1.1,1.1,80,0.00,,,0.00,WUHU216HW,2013-01-11 05:02:00,
2013-01-10 23:07:00,48.1,42.1,29.43,ESE,113,1.1,1.1,80,0.00,,,0.00,WUHU216HW,2013-01-11 05:07:00,